Lokaal Brand Risico
CBI


Neerslagradar Meer informatie rain snow radar


Onweersbuien Meer informatie Boltek Parkstad!


24/7 Weercamera Meer informatie Webcam







We konden geen weer-waarchuwingen ophalen. Ga rechtstreeks naar de Meteoalarm site : www.meteoalarm.eu en controleer daar .

METAR rapporten vliegvelden

   
EHBK - Beek Nederland
Gewijzigd: 22-01-2018 22:55
Bewolking  
Bewolking  
   Wind: WZW 11.1 km/h
Wind: WZW 11.1 km/h
Temperatuur: 7°C
Voelt als: 5°C
Dauwpunt: 5°C
Vochtigheid: 87%
Barometer: 1018 hPa
Satelliet beelden: Bewolking
Zicht: meer dan 10 km
Bewolking: Bewolking 1189 m
EHBK 222155Z AUTO 25006KT 200V300 9999 OVC039 07/05 Q1018 NOSIG
EHBK - Maastricht Nederland
Gewijzigd: 22-01-2018 22:55
Bewolking  
Bewolking  
   Wind: WZW 11.1 km/h
Wind: WZW 11.1 km/h
Temperatuur: 7°C
Voelt als: 5°C
Dauwpunt: 5°C
Vochtigheid: 87%
Barometer: 1018 hPa
Satelliet beelden: Bewolking
Zicht: meer dan 10 km
Bewolking: Bewolking 1189 m
EHBK 222155Z AUTO 25006KT 200V300 9999 OVC039 07/05 Q1018 NOSIG
EBLG - Liège België
Gewijzigd: 22-01-2018 22:50
Grotendeels bewolkt  
Grotendeels bewolkt  
   Wind: Westen 14.8 km/h
Wind: Westen 14.8 km/h
Temperatuur: 5°C
Voelt als: 2°C
Dauwpunt: 4°C
Vochtigheid: 93%
Barometer: 1018 hPa
Satelliet beelden: Grotendeels bewolkt
Zicht: meer dan 10 km
Bewolking: Licht bewolkt 793 m,
Grotendeels bewolkt 1311 m
EBLG 222150Z 26008KT 9999 FEW026 BKN043 05/04 Q1018 NOSIG
EDDK - Köln/Bonn Duitsland
Gewijzigd: 22-01-2018 22:50
Grotendeels bewolkt  
Grotendeels bewolkt  
   Wind: WNW 20.4 km/h
Wind: WNW 20.4 km/h
Temperatuur: 7°C
Voelt als: 3°C
Dauwpunt: 5°C
Vochtigheid: 87%
Barometer: 1017 hPa
Satelliet beelden: Grotendeels bewolkt
Zicht: meer dan 10 km
Bewolking: Licht bewolkt 488 m,
Grotendeels bewolkt 1676 m
EDDK 222150Z 29011KT 9999 FEW016 BKN055 07/05 Q1017 NOSIG
EDDL - Düsseldorf Duitsland
Gewijzigd: 22-01-2018 22:50
Grotendeels bewolkt  
Grotendeels bewolkt  
   Wind: Westen 14.8 km/h
Wind: Westen 14.8 km/h
Temperatuur: 7°C
Voelt als: 4°C
Dauwpunt: 5°C
Vochtigheid: 87%
Barometer: 1017 hPa
Satelliet beelden: Grotendeels bewolkt
Zicht: meer dan 10 km
Bewolking: Gedeeltelijk bewolkt 762 m,
Grotendeels bewolkt 1524 m
EDDL 222150Z 26008KT 9999 SCT025 BKN050 07/05 Q1017 NOSIG
EHEH - Eindhoven Nederland
Gewijzigd: 22-01-2018 23:11
Bewolking  
Bewolking  
   Wind: WZW 13 km/h
Wind: WZW 13 km/h
Temperatuur: 7°C
Voelt als: 4°C
Dauwpunt: 5°C
Vochtigheid: 87%
Barometer: 1017 hPa
Satelliet beelden: Bewolking
Zicht: meer dan 10 km
Bewolking: Licht bewolkt 853 m,
Grotendeels bewolkt 1067 m,
Bewolking 1189 m
EHEH 222211Z AUTO 25007KT 220V280 9999 FEW028 BKN035 OVC039 07/05 Q1017 BLU
ELLX - Luxemburg Luxemburg
Gewijzigd: 22-01-2018 22:50
Grotendeels bewolkt  
Grotendeels bewolkt  
   Wind: Westen 16.7 km/h
Wind: Westen 16.7 km/h
Temperatuur: 5°C
Voelt als: 2°C
Dauwpunt: 4°C
Vochtigheid: 93%
Barometer: 1019 hPa
Satelliet beelden: Grotendeels bewolkt
Zicht: meer dan 10 km
Bewolking: Grotendeels bewolkt 1067 m
ELLX 222150Z 27009KT 9999 BKN035 05/04 Q1019 NOSIG
EGLL - London England
Gewijzigd: 22-01-2018 23:20
Bewolking  
Bewolking  
   Wind: ZW 16.7 km/h
Wind: ZW 16.7 km/h
Temperatuur: 8°C
Voelt als: 5°C
Dauwpunt: 4°C
Vochtigheid: 76%
Barometer: 1019 hPa
Satelliet beelden: Bewolking
Zicht: meer dan 10 km
Bewolking: Bewolking 1006 m
EGLL 222220Z AUTO 22009KT 9999 OVC033 08/04 Q1019 NOSIG
EBAW - Antwerpen België
Gewijzigd: 22-01-2018 22:50
Grotendeels bewolkt  
Grotendeels bewolkt  
   Wind: WZW 11.1 km/h
Wind: WZW 11.1 km/h
Temperatuur: 7°C
Voelt als: 5°C
Dauwpunt: 5°C
Vochtigheid: 87%
Barometer: 1018 hPa
Satelliet beelden: Grotendeels bewolkt
Zicht: meer dan 10 km
Bewolking: Gedeeltelijk bewolkt 1158 m,
Grotendeels bewolkt 1341 m
EBAW 222150Z 24006KT 9999 SCT038 BKN044 07/05 Q1018 NOSIG
EBOS - Oostende België
Gewijzigd: 22-01-2018 23:20
Licht bewolkt  
Licht bewolkt  
   Wind: WZW 13 km/h
Wind: WZW 13 km/h
Temperatuur: 6°C
Voelt als: 3°C
Dauwpunt: 4°C
Vochtigheid: 87%
Barometer: 1019 hPa
Satelliet beelden: Licht bewolkt
Zicht: meer dan 10 km
Bewolking: Licht bewolkt 1280 m
EBOS 222220Z 24007KT 9999 FEW042 06/04 Q1019 NOSIG
LEAL - La Nucia Spanje
Gewijzigd: 22-01-2018 23:00
Helder  
Helder  
   Wind: NW 20.4 km/h
Wind: NW 20.4 km/h
Temperatuur: 18°C
Dauwpunt: 3°C
Vochtigheid: 37%
Barometer: 1023 hPa
Zicht: meer dan 10 km
Bewolking: Helder
LEAL 222200Z 31011KT 280V340 CAVOK 18/03 Q1023 NOSIG
TNCA - Oranjestad Aruba
Gewijzigd: 22-01-2018 23:00
Licht bewolkt  
Licht bewolkt  
   Wind: Oosten 38.9 km/h
Wind: Oosten 38.9 km/h
Temperatuur: 28°C
Gevoelstemperatuur: 31°C
Dauwpunt: 23°C
Vochtigheid: 74%
Barometer: 1009 hPa
Satelliet beelden: Licht bewolkt
Zicht: meer dan 10 km
Bewolking: Licht bewolkt 549 m
TNCA 222200Z 08021KT 9999 FEW018 28/23 Q1009 A2982 NOSIG
TNCC - Willemstad Curacao
Gewijzigd: 22-01-2018 23:00
Licht bewolkt  
Licht bewolkt  
   Wind: OZO 24.1 km/h
Wind: OZO 24.1 km/h
Temperatuur: 27°C
Gevoelstemperatuur: 29°C
Dauwpunt: 23°C
Vochtigheid: 79%
Barometer: 1011 hPa
Satelliet beelden: Licht bewolkt
Bewolking: Licht bewolkt 610 m
TNCC 222200Z 11013KT FEW020 27/23 Q1011 NOSIG
MTPP - Port au Prince Haitië
Gewijzigd: 22-01-2018 23:00
Licht bewolkt  
Licht bewolkt  
   Wind: Oosten 27.8 km/h
Wind: Oosten 27.8 km/h
Temperatuur: 30°C
Gevoelstemperatuur: 31°C
Dauwpunt: 17°C
Vochtigheid: 46%
Barometer: 1010 hPa
Satelliet beelden: Licht bewolkt
Zicht: meer dan 10 km
Bewolking: Licht bewolkt 823 m
MTPP 222200Z 10015KT 9999 FEW027 30/17 Q1010 A2984
ENVA - Trondheim Noorwegen
Gewijzigd: 22-01-2018 23:20
Helder  
Helder  
   Wind: OZO 16.7 km/h
Wind: OZO 16.7 km/h
Temperatuur: -10°C
Voelt als: -17°C
Dauwpunt: -14°C
Vochtigheid: 73%
Barometer: 1010 hPa
Zicht: meer dan 10 km
Bewolking: Helder
ENVA 222220Z 12009KT CAVOK M10/M14 Q1010 RMK WIND 670FT 09011KT
ENBO - Bodø Noorwegen
Gewijzigd: 22-01-2018 23:20
Helder  
Helder  
   Wind: Oosten 44.4 km/h
Wind: Oosten 44.4 km/h
Temperatuur: -7°C
Voelt als: -17°C
Dauwpunt: -13°C
Vochtigheid: 63%
Barometer: 1010 hPa
Zicht: meer dan 10 km
Bewolking: Helder
ENBO 222220Z 08024KT CAVOK M07/M13 Q1010 NOSIG
ETNG - Geilenkirchen Duitsland
Gewijzigd: 22-01-2018 22:50
Grotendeels bewolkt  
Grotendeels bewolkt  
   Wind: Westen 18.5 km/h
Wind: Westen 18.5 km/h
Temperatuur: 7°C
Voelt als: 4°C
Dauwpunt: 5°C
Vochtigheid: 87%
Barometer: 1017 hPa
Satelliet beelden: Grotendeels bewolkt
Zicht: meer dan 10 km
Bewolking: Licht bewolkt 671 m,
Grotendeels bewolkt 1219 m
ETNG 222150Z 26010KT 9999 FEW022 BKN040 07/05 Q1017
 

Script ontwikkeld door  Saratoga-weather.org Aangepast voor de template door  Weerstation Leuven

U vindt ons ook hier:

Het Weer Aktueel

UK Metoffice

European Weather Network

WeatherCloud

Weather Underground

Benelux Weer Netwerk

AWEKAS

WeatherlinkIP

Citizen Weather Observer Program (CWOP)

HAMweather, WeatherForYou, PWS Weather

Apparatuur in gebruik:

Hardwareleverancier
Weerhuisje

Weerstation
Vantage Pro2+ +UV

Weercomputer's
alix3d2 & wl330n

Weerprogramma's
Smartbedded

Satelliet NOAA's
WRX137 & KX137

Satelliet Eumetcast
Ayecka SR1 & Triax

Bliksemdetectie
Boltek StormTracker

Webleverancier
VPS Linux V80

Weerhuisje

Vantage Pro2+ +UV

alix3d2 & wl330n

Smartbedded

WRX137 & KX137

Ayecka SR1 & Triax

Boltek StormTracker

VPS Linux V80